sensor_id;sensor_type;location;lat;lon;timestamp;pressure;altitude;pressure_sealevel;temperature;humidity
22572;BME280;11452;53.368;14.658;2023-02-04T00:01:19;101592.59;;;3.29;80.13
22572;BME280;11452;53.368;14.658;2023-02-04T00:06:24;101602.92;;;3.12;80.28
22572;BME280;11452;53.368;14.658;2023-02-04T00:11:30;101634.23;;;3.05;80.76
22572;BME280;11452;53.368;14.658;2023-02-04T00:16:36;101643.06;;;3.03;80.96
22572;BME280;11452;53.368;14.658;2023-02-04T00:21:41;101660.80;;;2.92;80.66
22572;BME280;11452;53.368;14.658;2023-02-04T00:26:47;101687.64;;;2.91;80.59
22572;BME280;11452;53.368;14.658;2023-02-04T00:31:53;101698.63;;;2.92;80.30
22572;BME280;11452;53.368;14.658;2023-02-04T00:36:58;101715.38;;;2.88;80.30
22572;BME280;11452;53.368;14.658;2023-02-04T00:42:04;101729.91;;;2.88;79.83
22572;BME280;11452;53.368;14.658;2023-02-04T00:47:12;101745.73;;;2.90;79.54
22572;BME280;11452;53.368;14.658;2023-02-04T00:52:17;101775.63;;;2.95;80.00
22572;BME280;11452;53.368;14.658;2023-02-04T00:57:23;101786.07;;;3.07;79.89
22572;BME280;11452;53.368;14.658;2023-02-04T01:02:28;101802.84;;;2.98;79.69
22572;BME280;11452;53.368;14.658;2023-02-04T01:07:34;101838.91;;;3.02;80.05
22572;BME280;11452;53.368;14.658;2023-02-04T01:12:40;101852.95;;;3.09;80.23
22572;BME280;11452;53.368;14.658;2023-02-04T01:17:45;101872.74;;;3.12;80.24
22572;BME280;11452;53.368;14.658;2023-02-04T01:22:51;101894.34;;;3.07;80.36
22572;BME280;11452;53.368;14.658;2023-02-04T01:27:56;101914.16;;;3.04;80.27
22572;BME280;11452;53.368;14.658;2023-02-04T01:33:02;101925.14;;;3.09;80.35
22572;BME280;11452;53.368;14.658;2023-02-04T01:38:07;101944.52;;;3.07;80.45
22572;BME280;11452;53.368;14.658;2023-02-04T01:43:13;101947.59;;;3.06;80.69
22572;BME280;11452;53.368;14.658;2023-02-04T01:48:21;101956.05;;;2.92;80.31
22572;BME280;11452;53.368;14.658;2023-02-04T01:53:29;101958.69;;;2.94;80.65
22572;BME280;11452;53.368;14.658;2023-02-04T01:58:36;101978.06;;;2.90;80.73
22572;BME280;11452;53.368;14.658;2023-02-04T02:03:42;101984.23;;;2.84;80.44
22572;BME280;11452;53.368;14.658;2023-02-04T02:08:48;102008.87;;;2.86;80.59
22572;BME280;11452;53.368;14.658;2023-02-04T02:13:54;102015.47;;;2.88;80.64
22572;BME280;11452;53.368;14.658;2023-02-04T02:19:01;102031.73;;;2.96;80.69
22572;BME280;11452;53.368;14.658;2023-02-04T02:24:29;102054.58;;;2.97;80.43
22572;BME280;11452;53.368;14.658;2023-02-04T02:29:37;102063.81;;;3.02;80.47
22572;BME280;11452;53.368;14.658;2023-02-04T02:34:44;102085.37;;;3.06;80.55
22572;BME280;11452;53.368;14.658;2023-02-04T02:39:50;102097.23;;;3.13;80.36
22572;BME280;11452;53.368;14.658;2023-02-04T02:44:57;102110.95;;;2.95;79.76
22572;BME280;11452;53.368;14.658;2023-02-04T02:50:03;102110.51;;;2.94;80.24
22572;BME280;11452;53.368;14.658;2023-02-04T02:55:15;102136.03;;;2.92;80.49
22572;BME280;11452;53.368;14.658;2023-02-04T03:00:26;102156.23;;;3.02;80.92
22572;BME280;11452;53.368;14.658;2023-02-04T03:05:37;102170.32;;;3.07;80.98
22572;BME280;11452;53.368;14.658;2023-02-04T03:10:45;102172.52;;;3.03;80.86
22572;BME280;11452;53.368;14.658;2023-02-04T03:15:52;102198.05;;;2.98;81.16
22572;BME280;11452;53.368;14.658;2023-02-04T03:20:58;102215.25;;;2.96;81.12
22572;BME280;11452;53.368;14.658;2023-02-04T03:26:05;102230.21;;;2.94;81.04
22572;BME280;11452;53.368;14.658;2023-02-04T03:31:11;102249.56;;;2.86;80.91
22572;BME280;11452;53.368;14.658;2023-02-04T03:36:17;102260.11;;;2.81;81.06
22572;BME280;11452;53.368;14.658;2023-02-04T03:41:23;102272.87;;;2.78;81.39
22572;BME280;11452;53.368;14.658;2023-02-04T03:46:30;102287.41;;;2.88;81.61
22572;BME280;11452;53.368;14.658;2023-02-04T03:51:36;102301.50;;;2.93;81.84
22572;BME280;11452;53.368;14.658;2023-02-04T03:56:41;102311.19;;;2.97;81.78
22572;BME280;11452;53.368;14.658;2023-02-04T04:01:47;102320.42;;;3.06;82.20
22572;BME280;11452;53.368;14.658;2023-02-04T04:06:52;102327.89;;;2.87;81.45
22572;BME280;11452;53.368;14.658;2023-02-04T04:11:58;102342.86;;;2.88;81.86
22572;BME280;11452;53.368;14.658;2023-02-04T04:17:04;102356.50;;;2.99;82.13
22572;BME280;11452;53.368;14.658;2023-02-04T04:22:10;102369.28;;;3.04;81.91
22572;BME280;11452;53.368;14.658;2023-02-04T04:27:16;102380.73;;;3.08;81.87
22572;BME280;11452;53.368;14.658;2023-02-04T04:32:21;102382.05;;;2.96;81.37
22572;BME280;11452;53.368;14.658;2023-02-04T04:37:27;102393.47;;;2.99;81.63
22572;BME280;11452;53.368;14.658;2023-02-04T04:42:33;102405.38;;;2.95;81.47
22572;BME280;11452;53.368;14.658;2023-02-04T04:47:38;102413.70;;;2.88;81.19
22572;BME280;11452;53.368;14.658;2023-02-04T04:52:43;102428.64;;;2.75;81.27
22572;BME280;11452;53.368;14.658;2023-02-04T04:57:49;102433.92;;;2.75;81.18
22572;BME280;11452;53.368;14.658;2023-02-04T05:02:57;102445.31;;;2.67;81.35
22572;BME280;11452;53.368;14.658;2023-02-04T05:08:05;102446.64;;;2.68;81.61
22572;BME280;11452;53.368;14.658;2023-02-04T05:13:12;102460.23;;;2.62;81.40
22572;BME280;11452;53.368;14.658;2023-02-04T05:18:18;102467.69;;;2.52;81.34
22572;BME280;11452;53.368;14.658;2023-02-04T05:23:23;102477.32;;;2.40;81.22
22572;BME280;11452;53.368;14.658;2023-02-04T05:28:29;102486.47;;;2.30;81.33
22572;BME280;11452;53.368;14.658;2023-02-04T05:33:35;102500.08;;;2.26;81.56
22572;BME280;11452;53.368;14.658;2023-02-04T05:38:40;102514.56;;;2.25;81.58
22572;BME280;11452;53.368;14.658;2023-02-04T05:43:46;102538.84;;;2.35;82.06
22572;BME280;11452;53.368;14.658;2023-02-04T05:48:51;102549.88;;;2.40;82.04
22572;BME280;11452;53.368;14.658;2023-02-04T05:53:57;102563.95;;;2.46;82.06
22572;BME280;11452;53.368;14.658;2023-02-04T05:59:02;102572.30;;;2.43;81.69
22572;BME280;11452;53.368;14.658;2023-02-04T06:04:08;102592.08;;;2.39;81.94
22572;BME280;11452;53.368;14.658;2023-02-04T06:09:14;102620.56;;;2.29;81.51
22572;BME280;11452;53.368;14.658;2023-02-04T06:14:19;102630.27;;;2.33;81.90
22572;BME280;11452;53.368;14.658;2023-02-04T06:19:25;102634.70;;;2.35;81.44
22572;BME280;11452;53.368;14.658;2023-02-04T06:24:30;102644.45;;;2.47;81.54
22572;BME280;11452;53.368;14.658;2023-02-04T06:29:36;102655.89;;;2.48;81.36
22572;BME280;11452;53.368;14.658;2023-02-04T06:34:41;102676.21;;;2.56;81.49
22572;BME280;11452;53.368;14.658;2023-02-04T06:39:46;102682.41;;;2.63;81.49
22572;BME280;11452;53.368;14.658;2023-02-04T06:44:52;102689.08;;;2.70;81.53
22572;BME280;11452;53.368;14.658;2023-02-04T06:49:58;102701.02;;;2.78;81.52
22572;BME280;11452;53.368;14.658;2023-02-04T06:55:03;102702.39;;;2.87;81.53
22572;BME280;11452;53.368;14.658;2023-02-04T07:00:11;102718.76;;;2.96;81.52
22572;BME280;11452;53.368;14.658;2023-02-04T07:05:16;102718.81;;;3.05;81.44
22572;BME280;11452;53.368;14.658;2023-02-04T07:10:22;102731.55;;;3.02;80.87
22572;BME280;11452;53.368;14.658;2023-02-04T07:15:27;102741.68;;;3.03;80.84
22572;BME280;11452;53.368;14.658;2023-02-04T07:20:34;102750.55;;;3.09;80.95
22572;BME280;11452;53.368;14.658;2023-02-04T07:25:39;102749.69;;;3.17;80.87
22572;BME280;11452;53.368;14.658;2023-02-04T07:30:45;102749.77;;;3.26;80.90
22572;BME280;11452;53.368;14.658;2023-02-04T07:35:51;102758.14;;;3.27;80.60
22572;BME280;11452;53.368;14.658;2023-02-04T07:40:56;102763.80;;;3.19;79.86
22572;BME280;11452;53.368;14.658;2023-02-04T07:46:02;102770.39;;;3.14;79.75
22572;BME280;11452;53.368;14.658;2023-02-04T07:51:08;102774.71;;;3.04;79.68
22572;BME280;11452;53.368;14.658;2023-02-04T07:56:14;102780.47;;;3.08;79.57
22572;BME280;11452;53.368;14.658;2023-02-04T08:01:19;102786.19;;;3.08;79.51
22572;BME280;11452;53.368;14.658;2023-02-04T08:06:25;102803.55;;;3.32;79.78
22572;BME280;11452;53.368;14.658;2023-02-04T08:11:31;102811.36;;;3.19;79.12
22572;BME280;11452;53.368;14.658;2023-02-04T08:16:36;102820.67;;;3.26;78.96
22572;BME280;11452;53.368;14.658;2023-02-04T08:21:42;102830.36;;;3.26;79.06
22572;BME280;11452;53.368;14.658;2023-02-04T08:26:47;102836.06;;;3.24;79.05
22572;BME280;11452;53.368;14.658;2023-02-04T08:31:55;102842.28;;;3.29;78.91
22572;BME280;11452;53.368;14.658;2023-02-04T08:37:00;102852.00;;;3.36;78.88
22572;BME280;11452;53.368;14.658;2023-02-04T08:42:05;102863.70;;;3.71;79.86
22572;BME280;11452;53.368;14.658;2023-02-04T08:47:11;102865.50;;;3.71;78.72
22572;BME280;11452;53.368;14.658;2023-02-04T08:52:17;102883.12;;;3.73;79.24
22572;BME280;11452;53.368;14.658;2023-02-04T08:57:22;102874.16;;;3.53;77.72
22572;BME280;11452;53.368;14.658;2023-02-04T09:02:28;102889.16;;;4.23;75.96
22572;BME280;11452;53.368;14.658;2023-02-04T09:07:34;102884.84;;;3.65;75.85
22572;BME280;11452;53.368;14.658;2023-02-04T09:12:39;102887.81;;;3.50;74.17
22572;BME280;11452;53.368;14.658;2023-02-04T09:17:46;102903.23;;;3.48;74.09
22572;BME280;11452;53.368;14.658;2023-02-04T09:22:51;102918.06;;;3.34;73.86
22572;BME280;11452;53.368;14.658;2023-02-04T09:27:57;102920.84;;;3.48;73.53
22572;BME280;11452;53.368;14.658;2023-02-04T09:33:02;102918.24;;;3.56;72.52
22572;BME280;11452;53.368;14.658;2023-02-04T09:38:08;102934.95;;;3.48;72.42
22572;BME280;11452;53.368;14.658;2023-02-04T09:43:17;102933.17;;;3.47;71.59
22572;BME280;11452;53.368;14.658;2023-02-04T09:48:23;102942.44;;;3.49;70.94
22572;BME280;11452;53.368;14.658;2023-02-04T09:53:29;102946.08;;;3.63;70.48
22572;BME280;11452;53.368;14.658;2023-02-04T09:58:36;102955.36;;;3.66;70.08
22572;BME280;11452;53.368;14.658;2023-02-04T10:03:43;102959.47;;;3.85;70.60
22572;BME280;11452;53.368;14.658;2023-02-04T10:08:54;102954.64;;;3.87;68.62
22572;BME280;11452;53.368;14.658;2023-02-04T10:14:00;102957.28;;;3.86;68.49
22572;BME280;11452;53.368;14.658;2023-02-04T10:19:10;102965.54;;;4.37;68.19
22572;BME280;11452;53.368;14.658;2023-02-04T10:24:16;102963.59;;;4.09;66.97
22572;BME280;11452;53.368;14.658;2023-02-04T10:29:23;102977.48;;;3.77;65.69
22572;BME280;11452;53.368;14.658;2023-02-04T10:39:42;102985.28;;;3.62;65.58
22572;BME280;11452;53.368;14.658;2023-02-04T10:44:48;102986.08;;;3.51;65.40
22572;BME280;11452;53.368;14.658;2023-02-04T10:50:16;102984.42;;;3.63;65.37
22572;BME280;11452;53.368;14.658;2023-02-04T10:55:22;102991.77;;;3.47;64.56
22572;BME280;11452;53.368;14.658;2023-02-04T11:00:28;102988.51;;;3.29;64.84
22572;BME280;11452;53.368;14.658;2023-02-04T11:05:35;103004.33;;;3.26;64.57
22572;BME280;11452;53.368;14.658;2023-02-04T11:10:41;103011.70;;;3.18;63.82
22572;BME280;11452;53.368;14.658;2023-02-04T11:16:06;103014.16;;;3.41;64.45
22572;BME280;11452;53.368;14.658;2023-02-04T11:21:01;103010.83;;;3.60;64.03
22572;BME280;11452;53.368;14.658;2023-02-04T11:36:33;103023.44;;;3.89;62.48
22572;BME280;11452;53.368;14.658;2023-02-04T11:41:38;103027.08;;;4.04;62.48
22572;BME280;11452;53.368;14.658;2023-02-04T11:46:51;103045.44;;;3.85;61.00
22572;BME280;11452;53.368;14.658;2023-02-04T11:52:10;103044.81;;;3.65;61.20
22572;BME280;11452;53.368;14.658;2023-02-04T11:57:13;103046.80;;;3.44;60.54
22572;BME280;11452;53.368;14.658;2023-02-04T12:02:26;103046.99;;;3.63;60.47
22572;BME280;11452;53.368;14.658;2023-02-04T12:07:28;103056.19;;;3.58;60.38
22572;BME280;11452;53.368;14.658;2023-02-04T12:12:40;103064.95;;;3.51;59.10
22572;BME280;11452;53.368;14.658;2023-02-04T12:17:45;103065.39;;;3.51;59.77
22572;BME280;11452;53.368;14.658;2023-02-04T12:22:52;103067.30;;;3.65;59.41
22572;BME280;11452;53.368;14.658;2023-02-04T12:27:57;103072.87;;;3.53;58.48
22572;BME280;11452;53.368;14.658;2023-02-04T12:33:03;103071.63;;;3.20;58.66
22572;BME280;11452;53.368;14.658;2023-02-04T12:38:08;103084.56;;;3.34;58.97
22572;BME280;11452;53.368;14.658;2023-02-04T12:43:14;103092.45;;;3.71;59.22
22572;BME280;11452;53.368;14.658;2023-02-04T12:48:19;103094.07;;;4.00;58.96
22572;BME280;11452;53.368;14.658;2023-02-04T12:53:25;103103.46;;;3.68;57.52
22572;BME280;11452;53.368;14.658;2023-02-04T12:58:31;103105.44;;;3.47;58.04
22572;BME280;11452;53.368;14.658;2023-02-04T13:03:36;103114.75;;;3.52;58.27
22572;BME280;11452;53.368;14.658;2023-02-04T13:08:42;103106.62;;;3.76;58.98
22572;BME280;11452;53.368;14.658;2023-02-04T13:13:47;103113.83;;;3.93;57.18
22572;BME280;11452;53.368;14.658;2023-02-04T13:18:53;103124.91;;;3.57;56.90
22572;BME280;11452;53.368;14.658;2023-02-04T13:23:58;103118.37;;;3.24;56.64
22572;BME280;11452;53.368;14.658;2023-02-04T13:29:04;103115.13;;;3.11;57.16
22572;BME280;11452;53.368;14.658;2023-02-04T13:34:09;103120.69;;;3.32;57.62
22572;BME280;11452;53.368;14.658;2023-02-04T13:39:15;103131.89;;;3.48;57.99
22572;BME280;11452;53.368;14.658;2023-02-04T13:44:20;103128.17;;;3.34;56.90
22572;BME280;11452;53.368;14.658;2023-02-04T13:49:26;103129.30;;;3.55;57.44
22572;BME280;11452;53.368;14.658;2023-02-04T13:54:32;103139.02;;;3.57;56.14
22572;BME280;11452;53.368;14.658;2023-02-04T13:59:39;103137.20;;;3.53;56.93
22572;BME280;11452;53.368;14.658;2023-02-04T14:04:44;103154.06;;;3.26;56.59
22572;BME280;11452;53.368;14.658;2023-02-04T14:09:50;103150.80;;;3.11;56.05
22572;BME280;11452;53.368;14.658;2023-02-04T14:14:56;103176.52;;;2.93;55.75
22572;BME280;11452;53.368;14.658;2023-02-04T14:20:01;103169.48;;;2.66;55.61
22572;BME280;11452;53.368;14.658;2023-02-04T14:25:08;103159.81;;;2.66;56.28
22572;BME280;11452;53.368;14.658;2023-02-04T14:30:20;103172.81;;;2.82;56.35
22572;BME280;11452;53.368;14.658;2023-02-04T14:35:27;103169.54;;;2.69;56.01
22572;BME280;11452;53.368;14.658;2023-02-04T14:40:33;103191.14;;;2.45;55.63
22572;BME280;11452;53.368;14.658;2023-02-04T14:45:39;103193.46;;;2.52;55.97
22572;BME280;11452;53.368;14.658;2023-02-04T14:50:45;103201.21;;;2.41;56.42
22572;BME280;11452;53.368;14.658;2023-02-04T14:55:51;103206.63;;;2.25;55.90
22572;BME280;11452;53.368;14.658;2023-02-04T15:00:56;103210.44;;;2.42;56.52
22572;BME280;11452;53.368;14.658;2023-02-04T15:06:03;103209.27;;;2.50;56.42
22572;BME280;11452;53.368;14.658;2023-02-04T15:11:08;103202.55;;;2.44;56.26
22572;BME280;11452;53.368;14.658;2023-02-04T15:16:14;103213.37;;;2.58;56.51
22572;BME280;11452;53.368;14.658;2023-02-04T15:21:20;103214.31;;;2.63;56.23
22572;BME280;11452;53.368;14.658;2023-02-04T15:26:25;103218.82;;;2.43;55.71
22572;BME280;11452;53.368;14.658;2023-02-04T15:31:31;103225.98;;;2.26;55.81
22572;BME280;11452;53.368;14.658;2023-02-04T15:36:37;103228.73;;;2.08;55.87
22572;BME280;11452;53.368;14.658;2023-02-04T15:41:42;103234.94;;;1.89;55.74
22572;BME280;11452;53.368;14.658;2023-02-04T15:46:48;103240.37;;;1.74;55.91
22572;BME280;11452;53.368;14.658;2023-02-04T15:51:53;103235.42;;;1.69;55.91
22572;BME280;11452;53.368;14.658;2023-02-04T15:56:59;103242.65;;;1.78;56.21
22572;BME280;11452;53.368;14.658;2023-02-04T16:02:04;103250.48;;;1.75;56.08
22572;BME280;11452;53.368;14.658;2023-02-04T16:07:10;103241.62;;;1.71;56.29
22572;BME280;11452;53.368;14.658;2023-02-04T16:12:16;103263.28;;;1.77;56.68
22572;BME280;11452;53.368;14.658;2023-02-04T16:17:21;103260.21;;;1.78;56.91
22572;BME280;11452;53.368;14.658;2023-02-04T16:22:27;103264.17;;;1.78;56.81
22572;BME280;11452;53.368;14.658;2023-02-04T16:27:33;103267.80;;;1.83;56.89
22572;BME280;11452;53.368;14.658;2023-02-04T16:32:38;103274.39;;;1.62;56.60
22572;BME280;11452;53.368;14.658;2023-02-04T16:37:44;103283.73;;;1.67;56.83
22572;BME280;11452;53.368;14.658;2023-02-04T16:42:49;103284.18;;;1.48;55.88
22572;BME280;11452;53.368;14.658;2023-02-04T16:47:55;103284.61;;;1.49;56.31
22572;BME280;11452;53.368;14.658;2023-02-04T16:53:00;103293.44;;;1.51;56.17
22572;BME280;11452;53.368;14.658;2023-02-04T16:58:07;103283.40;;;1.53;55.76
22572;BME280;11452;53.368;14.658;2023-02-04T17:03:13;103274.95;;;1.49;55.89
22572;BME280;11452;53.368;14.658;2023-02-04T17:08:18;103278.13;;;1.53;55.86
22572;BME280;11452;53.368;14.658;2023-02-04T17:13:24;103272.47;;;1.55;55.88
22572;BME280;11452;53.368;14.658;2023-02-04T17:18:30;103274.06;;;1.49;55.64
22572;BME280;11452;53.368;14.658;2023-02-04T17:23:36;103285.70;;;1.38;55.75
22572;BME280;11452;53.368;14.658;2023-02-04T17:28:42;103287.95;;;1.40;55.74
22572;BME280;11452;53.368;14.658;2023-02-04T17:33:47;103297.67;;;1.43;56.17
22572;BME280;11452;53.368;14.658;2023-02-04T17:38:53;103298.13;;;1.44;56.11
22572;BME280;11452;53.368;14.658;2023-02-04T17:44:00;103304.06;;;1.35;56.03
22572;BME280;11452;53.368;14.658;2023-02-04T17:49:06;103315.22;;;1.23;56.26
22572;BME280;11452;53.368;14.658;2023-02-04T17:54:13;103317.42;;;1.24;56.33
22572;BME280;11452;53.368;14.658;2023-02-04T17:59:19;103315.60;;;1.21;56.72
22572;BME280;11452;53.368;14.658;2023-02-04T18:04:24;103317.34;;;1.21;56.67
22572;BME280;11452;53.368;14.658;2023-02-04T18:09:30;103328.95;;;1.10;56.70
22572;BME280;11452;53.368;14.658;2023-02-04T18:14:36;103330.09;;;1.21;57.47
22572;BME280;11452;53.368;14.658;2023-02-04T18:19:43;103331.43;;;1.79;56.11
22572;BME280;11452;53.368;14.658;2023-02-04T18:24:48;103330.33;;;1.51;57.05
22572;BME280;11452;53.368;14.658;2023-02-04T18:29:54;103330.54;;;1.99;56.06
22572;BME280;11452;53.368;14.658;2023-02-04T18:35:31;103342.42;;;1.60;56.68
22572;BME280;11452;53.368;14.658;2023-02-04T18:40:28;103353.57;;;1.29;57.05
22572;BME280;11452;53.368;14.658;2023-02-04T18:45:38;103351.97;;;1.19;57.40
22572;BME280;11452;53.368;14.658;2023-02-04T18:50:46;103345.34;;;1.17;57.76
22572;BME280;11452;53.368;14.658;2023-02-04T18:55:54;103350.52;;;1.30;58.44
22572;BME280;11452;53.368;14.658;2023-02-04T19:06:39;103359.86;;;1.36;58.36
22572;BME280;11452;53.368;14.658;2023-02-04T19:11:51;103357.52;;;1.31;58.21
22572;BME280;11452;53.368;14.658;2023-02-04T19:17:22;103362.13;;;1.21;58.30
22572;BME280;11452;53.368;14.658;2023-02-04T19:22:45;103357.50;;;1.12;58.49
22572;BME280;11452;53.368;14.658;2023-02-04T19:27:53;103361.03;;;0.95;58.42
22572;BME280;11452;53.368;14.658;2023-02-04T19:33:20;103364.58;;;0.80;58.74
22572;BME280;11452;53.368;14.658;2023-02-04T19:38:39;103363.55;;;0.74;58.86
22572;BME280;11452;53.368;14.658;2023-02-04T19:43:45;103372.63;;;0.69;59.27
22572;BME280;11452;53.368;14.658;2023-02-04T19:48:50;103367.00;;;0.55;59.46
22572;BME280;11452;53.368;14.658;2023-02-04T19:54:17;103375.66;;;0.51;59.76
22572;BME280;11452;53.368;14.658;2023-02-04T20:04:38;103388.34;;;0.50;60.29
22572;BME280;11452;53.368;14.658;2023-02-04T20:09:42;103385.09;;;0.45;60.39
22572;BME280;11452;53.368;14.658;2023-02-04T20:14:49;103383.83;;;0.46;60.56
22572;BME280;11452;53.368;14.658;2023-02-04T20:19:57;103382.09;;;0.47;60.87
22572;BME280;11452;53.368;14.658;2023-02-04T20:25:34;103384.91;;;0.53;61.12
22572;BME280;11452;53.368;14.658;2023-02-04T20:30:40;103379.88;;;0.62;61.35
22572;BME280;11452;53.368;14.658;2023-02-04T20:36:40;103381.75;;;0.66;61.47
22572;BME280;11452;53.368;14.658;2023-02-04T20:41:01;103386.87;;;0.77;61.49
22572;BME280;11452;53.368;14.658;2023-02-04T20:46:12;103384.30;;;0.63;61.29
22572;BME280;11452;53.368;14.658;2023-02-04T20:51:24;103398.86;;;0.66;61.68
22572;BME280;11452;53.368;14.658;2023-02-04T20:56:36;103396.92;;;0.76;61.96
22572;BME280;11452;53.368;14.658;2023-02-04T21:01:46;103400.16;;;0.82;62.13
22572;BME280;11452;53.368;14.658;2023-02-04T21:06:58;103395.79;;;0.82;61.87
22572;BME280;11452;53.368;14.658;2023-02-04T21:12:08;103389.73;;;0.69;61.93
22572;BME280;11452;53.368;14.658;2023-02-04T21:17:13;103404.55;;;0.65;62.17
22572;BME280;11452;53.368;14.658;2023-02-04T21:22:19;103405.06;;;0.68;62.04
22572;BME280;11452;53.368;14.658;2023-02-04T21:27:26;103409.34;;;0.64;62.24
22572;BME280;11452;53.368;14.658;2023-02-04T21:32:31;103403.05;;;0.59;62.24
22572;BME280;11452;53.368;14.658;2023-02-04T21:37:37;103421.80;;;0.56;62.47
22572;BME280;11452;53.368;14.658;2023-02-04T21:42:43;103408.64;;;0.56;62.54
22572;BME280;11452;53.368;14.658;2023-02-04T21:47:49;103404.64;;;0.53;62.82
22572;BME280;11452;53.368;14.658;2023-02-04T21:52:55;103411.03;;;0.47;62.71
22572;BME280;11452;53.368;14.658;2023-02-04T21:58:01;103403.94;;;0.44;62.85
22572;BME280;11452;53.368;14.658;2023-02-04T22:03:07;103398.06;;;0.53;63.32
22572;BME280;11452;53.368;14.658;2023-02-04T22:08:15;103400.33;;;0.56;63.18
22572;BME280;11452;53.368;14.658;2023-02-04T22:13:20;103403.47;;;0.43;62.85
22572;BME280;11452;53.368;14.658;2023-02-04T22:18:27;103421.73;;;0.37;63.09
22572;BME280;11452;53.368;14.658;2023-02-04T22:23:32;103428.72;;;0.22;63.15
22572;BME280;11452;53.368;14.658;2023-02-04T22:28:38;103418.10;;;0.19;63.28
22572;BME280;11452;53.368;14.658;2023-02-04T22:33:43;103415.03;;;0.18;63.46
22572;BME280;11452;53.368;14.658;2023-02-04T22:38:49;103396.78;;;0.24;63.80
22572;BME280;11452;53.368;14.658;2023-02-04T22:43:55;103393.14;;;0.05;63.46
22572;BME280;11452;53.368;14.658;2023-02-04T22:49:01;103388.52;;;-0.04;63.90
22572;BME280;11452;53.368;14.658;2023-02-04T22:54:06;103381.43;;;-0.06;63.99
22572;BME280;11452;53.368;14.658;2023-02-04T22:59:12;103379.97;;;-0.11;64.29
22572;BME280;11452;53.368;14.658;2023-02-04T23:04:18;103387.34;;;-0.27;64.41
22572;BME280;11452;53.368;14.658;2023-02-04T23:09:23;103404.27;;;-0.32;64.61
22572;BME280;11452;53.368;14.658;2023-02-04T23:14:29;103404.69;;;-0.32;64.68
22572;BME280;11452;53.368;14.658;2023-02-04T23:19:34;103402.73;;;-0.40;65.05
22572;BME280;11452;53.368;14.658;2023-02-04T23:24:41;103396.02;;;-0.30;65.65
22572;BME280;11452;53.368;14.658;2023-02-04T23:29:46;103393.66;;;-0.35;65.40
22572;BME280;11452;53.368;14.658;2023-02-04T23:34:52;103399.27;;;-0.39;65.76
22572;BME280;11452;53.368;14.658;2023-02-04T23:39:58;103402.00;;;-0.48;65.87
22572;BME280;11452;53.368;14.658;2023-02-04T23:45:04;103398.63;;;-0.44;66.27
22572;BME280;11452;53.368;14.658;2023-02-04T23:50:10;103398.95;;;-0.33;66.14
22572;BME280;11452;53.368;14.658;2023-02-04T23:55:15;103399.27;;;-0.51;65.94
